Time;durP1;ratioP1;P1;durP2;ratioP2;P2;SDS_P1;SDS_P2;PMS_P1;PMS_P2;Temp;Humidity;BMP_temperature;BMP_pressure;BME280_temperature;BME280_humidity;BME280_pressure;Samples;Min_cycle;Max_cycle;Signal;HPM_P1;HPM_P2
2021/05/30 00:02:16;;;;;;;5.88;3.20;;;17.30;99.90;;;;;;5069956;28;20474;-88
2021/05/30 00:04:42;;;;;;;3.15;2.85;;;17.40;99.90;;;;;;5069251;28;20029;-87
2021/05/30 00:07:08;;;;;;;4.72;3.20;;;17.20;99.90;;;;;;5069242;28;20473;-88
2021/05/30 00:09:34;;;;;;;3.90;3.10;;;17.10;99.90;;;;;;5052094;28;20028;-88
2021/05/30 00:12:00;;;;;;;4.78;3.55;;;17.10;99.90;;;;;;5069536;28;20374;-88
2021/05/30 00:14:26;;;;;;;5.22;2.90;;;17.10;99.90;;;;;;5052661;28;20074;-88
2021/05/30 00:16:52;;;;;;;5.30;3.30;;;16.80;99.90;;;;;;5051344;28;20029;-88
2021/05/30 00:19:18;;;;;;;3.55;3.25;;;17.10;99.90;;;;;;5069680;28;20033;-88
2021/05/30 00:21:44;;;;;;;4.97;3.17;;;16.70;99.90;;;;;;5071519;28;20032;-88
2021/05/30 00:24:10;;;;;;;3.42;2.90;;;16.70;99.90;;;;;;5069405;28;20049;-88
2021/05/30 00:26:36;;;;;;;3.13;2.83;;;16.60;99.90;;;;;;5069368;28;20055;-88
2021/05/30 00:29:02;;;;;;;3.28;2.92;;;16.50;99.90;;;;;;5052888;28;20047;-88
2021/05/30 00:31:27;;;;;;;4.45;3.28;;;16.40;99.90;;;;;;5055832;28;20020;-88
2021/05/30 00:33:53;;;;;;;3.33;3.03;;;16.60;99.90;;;;;;5075453;28;20119;-89
2021/05/30 00:36:19;;;;;;;3.28;2.97;;;16.70;99.90;;;;;;5071009;28;20047;-88
2021/05/30 00:38:45;;;;;;;3.35;3.05;;;16.80;99.90;;;;;;5063894;28;20444;-88
2021/05/30 00:41:11;;;;;;;3.40;3.10;;;16.60;99.90;;;;;;5075970;28;20036;-89
2021/05/30 00:43:47;;;;;;;3.28;2.95;;;16.50;99.90;;;;;;5087293;28;20031;-88
2021/05/30 00:46:13;;;;;;;3.15;2.72;;;16.50;99.90;;;;;;5071080;28;20033;-88
2021/05/30 00:48:39;;;;;;;3.22;2.90;;;16.50;99.90;;;;;;5091707;28;20063;-88
2021/05/30 00:51:06;;;;;;;3.38;3.08;;;16.30;99.90;;;;;;5082959;28;20062;-88
2021/05/30 00:53:33;;;;;;;3.53;3.22;;;16.20;99.90;;;;;;5075672;28;20028;-88
2021/05/30 00:55:59;;;;;;;5.15;3.40;;;16.10;99.90;;;;;;5085050;28;20028;-88
2021/05/30 00:58:25;;;;;;;3.67;2.92;;;16.20;99.90;;;;;;5068883;28;20041;-88
2021/05/30 01:00:52;;;;;;;3.30;3.00;;;16.20;99.90;;;;;;5074454;28;20049;-88
2021/05/30 01:03:18;;;;;;;3.00;2.80;;;16.20;99.90;;;;;;5064930;28;20481;-88
2021/05/30 01:05:46;;;;;;;3.70;3.17;;;16.10;99.90;;;;;;5093504;28;20035;-88
2021/05/30 01:08:12;;;;;;;5.90;3.30;;;16.00;99.90;;;;;;5085271;28;20030;-88
2021/05/30 01:10:44;;;;;;;8.15;3.30;;;15.90;99.90;;;;;;5090106;28;20093;-88
2021/05/30 01:13:12;;;;;;;4.15;3.42;;;15.90;99.90;;;;;;5089536;28;20493;-88
2021/05/30 01:15:39;;;;;;;5.35;3.50;;;15.80;99.90;;;;;;5087204;28;20040;-88
2021/05/30 01:18:05;;;;;;;5.18;3.58;;;15.60;99.90;;;;;;5075317;28;20032;-89
2021/05/30 01:20:31;;;;;;;4.95;3.45;;;15.70;99.90;;;;;;5064580;28;20496;-88
2021/05/30 01:22:57;;;;;;;5.35;3.28;;;15.70;99.90;;;;;;5086832;28;20048;-88
2021/05/30 01:25:26;;;;;;;6.72;3.30;;;15.70;99.90;;;;;;5068419;28;20028;-88
2021/05/30 01:27:52;;;;;;;3.65;3.10;;;15.70;99.90;;;;;;5094352;28;20048;-89
2021/05/30 01:30:20;;;;;;;4.93;3.53;;;15.60;99.90;;;;;;5093053;28;20019;-88
2021/05/30 01:32:47;;;;;;;3.92;3.63;;;15.70;99.90;;;;;;5074940;28;20047;-88
2021/05/30 01:35:13;;;;;;;3.92;3.30;;;15.70;99.90;;;;;;5092379;28;20028;-88
2021/05/30 01:37:40;;;;;;;3.88;3.25;;;15.70;99.90;;;;;;5092200;28;20028;-88
2021/05/30 01:40:07;;;;;;;5.88;3.45;;;15.60;99.90;;;;;;5074641;28;20055;-89
2021/05/30 01:42:33;;;;;;;4.15;3.55;;;15.60;99.90;;;;;;5092950;28;20035;-88
2021/05/30 01:44:59;;;;;;;3.58;3.28;;;15.30;99.90;;;;;;5091613;28;20169;-88
2021/05/30 01:47:25;;;;;;;4.10;3.20;;;15.30;99.90;;;;;;5091440;28;20714;-88
2021/05/30 01:49:51;;;;;;;6.65;3.25;;;15.50;99.90;;;;;;5074086;28;20024;-88
2021/05/30 01:52:16;;;;;;;3.67;3.38;;;15.50;99.90;;;;;;5091799;28;20519;-88
2021/05/30 01:54:45;;;;;;;4.25;3.50;;;15.30;99.90;;;;;;5075605;28;20024;-88
2021/05/30 01:57:11;;;;;;;3.25;2.97;;;15.20;99.90;;;;;;5091925;28;20122;-88
2021/05/30 01:59:38;;;;;;;3.72;3.33;;;15.20;99.90;;;;;;5091507;28;20040;-88
2021/05/30 02:02:06;;;;;;;3.50;3.10;;;15.20;99.90;;;;;;5092302;28;20157;-88
2021/05/30 02:04:38;;;;;;;3.85;3.33;;;15.20;99.90;;;;;;5091669;28;20032;-88
2021/05/30 02:07:04;;;;;;;4.18;3.72;;;15.30;99.90;;;;;;5091754;28;20032;-88
2021/05/30 02:09:30;;;;;;;3.75;3.45;;;15.30;99.90;;;;;;5075795;28;20028;-88
2021/05/30 02:11:56;;;;;;;3.88;3.45;;;15.10;99.90;;;;;;5089635;28;20546;-88
2021/05/30 02:14:22;;;;;;;5.57;3.85;;;15.00;99.90;;;;;;5073939;28;20031;-88
2021/05/30 02:16:49;;;;;;;4.43;3.63;;;15.00;99.90;;;;;;5091636;28;20024;-88
2021/05/30 02:19:15;;;;;;;3.85;3.28;;;14.90;99.90;;;;;;5074948;28;20025;-88
2021/05/30 02:21:49;;;;;;;4.97;3.53;;;15.00;99.90;;;;;;5075740;28;20503;-88
2021/05/30 02:24:16;;;;;;;4.28;3.40;;;15.00;99.90;;;;;;5090159;28;20024;-89
2021/05/30 02:26:42;;;;;;;7.43;3.40;;;14.90;99.90;;;;;;5071739;28;20043;-88
2021/05/30 02:29:08;;;;;;;3.63;3.20;;;15.30;99.90;;;;;;5092750;28;20028;-87
2021/05/30 02:31:34;;;;;;;3.65;3.33;;;14.90;99.90;;;;;;5089415;28;20527;-88
2021/05/30 02:34:00;;;;;;;4.85;3.58;;;14.90;99.90;;;;;;5073743;28;20028;-88
2021/05/30 02:36:26;;;;;;;3.70;3.40;;;14.90;99.90;;;;;;5093030;28;20028;-88
2021/05/30 02:38:52;;;;;;;3.97;3.40;;;14.80;99.90;;;;;;5090964;28;20028;-88
2021/05/30 02:41:18;;;;;;;4.93;4.22;;;14.70;99.90;;;;;;5091264;28;20529;-88
2021/05/30 02:43:44;;;;;;;8.07;3.50;;;14.60;99.90;;;;;;5072380;28;20028;-88
2021/05/30 02:46:10;;;;;;;3.63;3.33;;;14.60;99.90;;;;;;5091094;28;20035;-88
2021/05/30 02:48:36;;;;;;;3.88;3.47;;;14.40;99.90;;;;;;5093542;28;20028;-89
2021/05/30 02:51:03;;;;;;;4.05;3.50;;;14.40;99.90;;;;;;5071345;28;20024;-88
2021/05/30 02:53:31;;;;;;;5.43;4.22;;;14.30;99.90;;;;;;5091481;28;20028;-88
2021/05/30 02:55:58;;;;;;;4.15;3.75;;;14.40;1.00;;;;;;5072552;28;20451;-88
2021/05/30 02:58:26;;;;;;;3.83;3.53;;;14.40;1.00;;;;;;5071149;28;20036;-88
2021/05/30 03:00:51;;;;;;;3.90;3.50;;;14.50;99.90;;;;;;5092265;28;20031;-88
2021/05/30 03:03:17;;;;;;;3.97;3.60;;;14.30;99.90;;;;;;5072993;28;20028;-88
2021/05/30 03:05:43;;;;;;;7.82;3.75;;;14.30;99.90;;;;;;5073357;28;20028;-89
2021/05/30 03:08:08;;;;;;;4.35;3.95;;;14.20;99.90;;;;;;5090581;28;20027;-88
2021/05/30 03:10:34;;;;;;;5.28;4.40;;;14.20;1.00;;;;;;5073505;28;20519;-88
2021/05/30 03:13:00;;;;;;;4.18;3.78;;;14.40;99.90;;;;;;5073726;28;20027;-89
2021/05/30 03:15:26;;;;;;;4.32;3.90;;;14.30;99.90;;;;;;5092870;28;20027;-88
2021/05/30 03:17:52;;;;;;;4.68;3.60;;;14.20;1.00;;;;;;5090363;28;20028;-88
2021/05/30 03:20:18;;;;;;;4.13;3.70;;;14.10;99.90;;;;;;5090227;28;20043;-89
2021/05/30 03:22:43;;;;;;;4.85;3.70;;;14.20;1.00;;;;;;5089869;28;20526;-87
2021/05/30 03:25:10;;;;;;;4.68;3.70;;;14.10;1.00;;;;;;5089926;28;20050;-88
2021/05/30 03:27:35;;;;;;;4.65;3.70;;;14.20;1.00;;;;;;5072767;28;20024;-89
2021/05/30 03:30:02;;;;;;;4.38;3.97;;;14.50;1.00;;;;;;5083963;28;20431;-88
2021/05/30 03:32:27;;;;;;;4.13;3.72;;;14.00;1.00;;;;;;5088543;28;20073;-88
2021/05/30 03:34:53;;;;;;;4.20;3.55;;;14.10;1.00;;;;;;5071766;28;20028;-88
2021/05/30 03:37:19;;;;;;;5.22;3.92;;;13.90;1.00;;;;;;5085808;28;20025;-88
2021/05/30 03:39:45;;;;;;;4.10;3.70;;;13.80;1.00;;;;;;5089909;28;20089;-88
2021/05/30 03:42:18;;;;;;;4.90;3.78;;;14.40;1.00;;;;;;5077092;28;20040;-88
2021/05/30 03:44:43;;;;;;;4.93;3.58;;;14.40;1.00;;;;;;5073548;28;20024;-88
2021/05/30 03:47:12;;;;;;;5.15;3.55;;;13.80;1.00;;;;;;5062363;28;20043;-88
2021/05/30 03:49:41;;;;;;;4.15;3.85;;;13.80;1.00;;;;;;5068106;28;20028;-88
2021/05/30 03:52:07;;;;;;;6.55;3.70;;;13.80;1.00;;;;;;5084027;28;20024;-88
2021/05/30 03:54:33;;;;;;;4.30;3.88;;;13.70;1.00;;;;;;5074390;28;20032;-88
2021/05/30 03:56:59;;;;;;;4.40;4.00;;;13.80;1.00;;;;;;5082958;28;20396;-88
2021/05/30 03:59:25;;;;;;;4.32;3.92;;;13.90;1.00;;;;;;5080595;28;20040;-88
2021/05/30 04:01:51;;;;;;;4.50;4.07;;;13.50;1.00;;;;;;5088807;28;20153;-88
2021/05/30 04:04:16;;;;;;;4.15;3.72;;;13.40;1.00;;;;;;5085884;28;20033;-88
2021/05/30 04:06:42;;;;;;;4.45;3.78;;;13.40;1.00;;;;;;5088957;28;20024;-88
2021/05/30 04:09:08;;;;;;;4.05;3.72;;;13.40;1.00;;;;;;5063278;28;20042;-88
2021/05/30 04:11:33;;;;;;;4.80;4.05;;;13.50;1.00;;;;;;5087687;28;20143;-88
2021/05/30 04:13:59;;;;;;;6.07;4.45;;;13.60;1.00;;;;;;5061916;28;20397;-88
2021/05/30 04:16:25;;;;;;;4.25;3.85;;;13.80;1.00;;;;;;5067521;28;20029;-88
2021/05/30 04:18:51;;;;;;;4.68;4.28;;;13.70;1.00;;;;;;5067815;28;20077;-89
2021/05/30 04:21:16;;;;;;;4.53;3.75;;;13.60;1.00;;;;;;5090267;28;20089;-88
2021/05/30 04:23:42;;;;;;;4.18;3.78;;;13.50;1.00;;;;;;5079050;28;20021;-89
2021/05/30 04:26:08;;;;;;;4.50;4.10;;;13.60;1.00;;;;;;5089183;28;20056;-88
2021/05/30 04:28:33;;;;;;;4.40;4.00;;;13.70;1.00;;;;;;5083143;28;20045;-88
2021/05/30 04:31:00;;;;;;;5.45;3.75;;;14.20;1.00;;;;;;5072627;28;20028;-88
2021/05/30 04:33:26;;;;;;;3.92;3.63;;;13.60;1.00;;;;;;5073000;28;20070;-88
2021/05/30 04:35:51;;;;;;;4.78;3.58;;;13.60;1.00;;;;;;5089731;28;20051;-88
2021/05/30 04:38:20;;;;;;;3.75;3.40;;;13.50;1.00;;;;;;5085776;28;20099;-88
2021/05/30 04:40:47;;;;;;;4.57;3.80;;;13.50;1.00;;;;;;5084439;28;20056;-88
2021/05/30 04:43:13;;;;;;;5.07;4.03;;;13.90;1.00;;;;;;5082710;28;20027;-88
2021/05/30 04:45:38;;;;;;;5.10;4.07;;;13.50;1.00;;;;;;5091000;28;20039;-88
2021/05/30 04:48:05;;;;;;;4.32;3.92;;;13.70;1.00;;;;;;5083445;28;20115;-88
2021/05/30 04:50:30;;;;;;;4.68;3.78;;;13.60;1.00;;;;;;5060108;28;20021;-88
2021/05/30 04:52:56;;;;;;;4.28;3.88;;;13.60;1.00;;;;;;5089146;28;20034;-88
2021/05/30 04:55:22;;;;;;;4.50;3.90;;;13.70;1.00;;;;;;5071878;28;20056;-89
2021/05/30 04:57:47;;;;;;;4.05;3.53;;;13.70;1.00;;;;;;5073761;28;20114;-88
2021/05/30 05:00:15;;;;;;;6.07;3.58;;;13.80;1.00;;;;;;5064432;28;20037;-87
2021/05/30 05:02:41;;;;;;;4.13;3.72;;;13.90;1.00;;;;;;5089414;28;20036;-88
2021/05/30 05:05:10;;;;;;;6.00;4.00;;;14.00;1.00;;;;;;5091670;28;20032;-88
2021/05/30 05:07:36;;;;;;;6.00;4.10;;;13.80;1.00;;;;;;5087354;28;20089;-88
2021/05/30 05:10:03;;;;;;;6.68;4.53;;;13.90;1.00;;;;;;5089992;28;20039;-88
2021/05/30 05:12:29;;;;;;;7.13;4.63;;;13.90;1.00;;;;;;5068013;28;20067;-88
2021/05/30 05:14:55;;;;;;;5.82;3.65;;;13.90;1.00;;;;;;5071057;28;20056;-88
2021/05/30 05:17:20;;;;;;;4.25;3.80;;;14.00;1.00;;;;;;5095444;28;20032;-88
2021/05/30 05:19:47;;;;;;;4.70;3.55;;;14.50;1.00;;;;;;5094060;28;20559;-88
2021/05/30 05:22:12;;;;;;;4.00;3.60;;;14.10;1.00;;;;;;5092038;28;20036;-88
2021/05/30 05:24:38;;;;;;;4.22;3.33;;;14.10;1.00;;;;;;5091832;28;20392;-87
2021/05/30 05:27:05;;;;;;;4.28;3.88;;;14.30;1.00;;;;;;5095005;28;20016;-88
2021/05/30 05:29:30;;;;;;;4.63;3.30;;;14.20;1.00;;;;;;5095300;28;20039;-88
2021/05/30 05:31:56;;;;;;;5.10;3.72;;;14.20;1.00;;;;;;5094751;28;20036;-88
2021/05/30 05:34:21;;;;;;;10.60;4.25;;;14.20;1.00;;;;;;5076561;28;20042;-88
2021/05/30 05:36:47;;;;;;;6.05;3.75;;;14.30;1.00;;;;;;5077687;28;20388;-88
2021/05/30 05:39:13;;;;;;;5.70;4.00;;;14.20;1.00;;;;;;5076294;28;20115;-88
2021/05/30 05:41:38;;;;;;;3.88;3.47;;;14.20;1.00;;;;;;5077353;28;20066;-87
2021/05/30 05:44:04;;;;;;;6.28;3.70;;;14.50;1.00;;;;;;5076862;28;20028;-88
2021/05/30 05:46:30;;;;;;;6.63;3.92;;;14.30;1.00;;;;;;5088703;28;20025;-89
2021/05/30 05:48:56;;;;;;;4.35;3.33;;;14.60;1.00;;;;;;5087561;28;20079;-88
2021/05/30 05:51:21;;;;;;;5.03;3.58;;;14.80;1.00;;;;;;5093522;28;20129;-88
2021/05/30 05:53:47;;;;;;;3.95;3.00;;;14.90;99.90;;;;;;5066479;28;20029;-89
2021/05/30 05:56:13;;;;;;;3.70;3.30;;;15.00;99.90;;;;;;5068435;28;20016;-89
2021/05/30 05:58:39;;;;;;;3.88;3.45;;;15.00;99.90;;;;;;5075212;28;20123;-88
2021/05/30 06:01:05;;;;;;;3.35;3.03;;;15.20;99.90;;;;;;5072203;28;20186;-89
2021/05/30 06:03:30;;;;;;;5.32;3.70;;;15.10;99.90;;;;;;5064900;28;20025;-90
2021/05/30 06:05:56;;;;;;;3.25;2.90;;;15.20;1.00;;;;;;5086031;28;20596;-90
2021/05/30 06:08:22;;;;;;;3.70;3.00;;;15.20;99.90;;;;;;5086546;28;20020;-91
2021/05/30 06:10:48;;;;;;;2.85;2.65;;;15.20;99.90;;;;;;5077225;28;20107;-90
2021/05/30 06:13:13;;;;;;;3.10;2.72;;;15.20;99.90;;;;;;5074250;28;20024;-91
2021/05/30 06:15:41;;;;;;;3.95;2.70;;;15.30;99.90;;;;;;5075547;28;20027;-90
2021/05/30 06:18:14;;;;;;;3.30;2.67;;;15.30;99.90;;;;;;5095150;28;20024;-91
2021/05/30 06:20:42;;;;;;;3.08;2.80;;;15.40;99.90;;;;;;5093603;28;20028;-91
2021/05/30 06:23:08;;;;;;;5.40;2.83;;;15.60;99.90;;;;;;5067076;28;20051;-93
2021/05/30 06:25:34;;;;;;;3.97;2.85;;;15.50;99.90;;;;;;5073736;28;20532;-91
2021/05/30 06:28:00;;;;;;;3.83;3.17;;;15.70;99.90;;;;;;5094090;28;20016;-94
2021/05/30 06:30:28;;;;;;;5.45;2.83;;;15.70;99.90;;;;;;5076419;28;20031;-88
2021/05/30 06:32:54;;;;;;;4.15;2.70;;;15.70;99.90;;;;;;5093211;28;20451;-89
2021/05/30 06:35:21;;;;;;;4.47;3.10;;;15.80;99.90;;;;;;5093142;28;20141;-88
2021/05/30 06:37:47;;;;;;;2.88;2.55;;;15.80;99.90;;;;;;5075754;28;20556;-94
2021/05/30 06:40:14;;;;;;;3.97;2.58;;;15.90;99.90;;;;;;5076880;28;20466;-90
2021/05/30 06:42:40;;;;;;;4.35;3.03;;;16.10;99.90;;;;;;5094540;28;20020;-91
2021/05/30 06:45:06;;;;;;;2.88;2.67;;;16.20;99.90;;;;;;5078202;28;20085;-92
2021/05/30 06:47:32;;;;;;;3.15;2.75;;;16.40;99.90;;;;;;5088393;28;20153;-88
2021/05/30 06:49:58;;;;;;;2.83;2.63;;;16.60;99.90;;;;;;5074911;28;20522;-90
2021/05/30 06:52:23;;;;;;;3.75;2.90;;;16.60;99.90;;;;;;5094273;28;20419;-90
2021/05/30 06:54:49;;;;;;;3.30;2.90;;;16.70;99.90;;;;;;5076564;28;20039;-91
2021/05/30 06:57:16;;;;;;;4.10;3.00;;;17.00;99.90;;;;;;5076373;28;20020;-91
2021/05/30 06:59:41;;;;;;;3.97;3.03;;;16.60;99.90;;;;;;5087945;28;20055;-90
2021/05/30 07:02:07;;;;;;;3.30;3.10;;;16.80;99.90;;;;;;5073965;28;20071;-91
2021/05/30 07:04:33;;;;;;;4.03;3.53;;;16.80;99.90;;;;;;5093373;28;20053;-90
2021/05/30 07:06:59;;;;;;;4.68;3.58;;;16.90;99.90;;;;;;5075398;28;20024;-90
2021/05/30 07:09:24;;;;;;;4.38;3.97;;;16.90;99.90;;;;;;5067761;28;20031;-89
2021/05/30 07:11:50;;;;;;;4.03;3.67;;;17.00;99.90;;;;;;5089802;28;20040;-90
2021/05/30 07:14:16;;;;;;;3.80;3.20;;;17.10;99.90;;;;;;5074888;28;20400;-89
2021/05/30 07:16:41;;;;;;;3.65;3.00;;;17.20;99.90;;;;;;5083831;28;20495;-89
2021/05/30 07:19:07;;;;;;;4.20;3.20;;;17.30;99.90;;;;;;5088807;28;20111;-90
2021/05/30 07:21:33;;;;;;;3.38;3.00;;;17.70;99.90;;;;;;5072705;28;20046;-90
2021/05/30 07:23:58;;;;;;;4.30;3.40;;;17.70;99.90;;;;;;5080014;28;20028;-90
2021/05/30 07:26:24;;;;;;;3.40;3.10;;;17.40;99.90;;;;;;5073517;28;20074;-90
2021/05/30 07:28:50;;;;;;;6.47;4.00;;;17.50;99.90;;;;;;5084373;28;20493;-90
2021/05/30 07:31:16;;;;;;;5.00;3.63;;;17.40;99.90;;;;;;5090960;28;20020;-89
2021/05/30 07:33:42;;;;;;;3.20;2.90;;;17.40;99.90;;;;;;5092013;28;20066;-89
2021/05/30 07:36:07;;;;;;;5.47;3.40;;;17.60;99.90;;;;;;5073747;28;20028;-89
2021/05/30 07:38:34;;;;;;;4.20;3.22;;;17.80;99.90;;;;;;5063474;28;20040;-90
2021/05/30 07:41:00;;;;;;;4.07;3.20;;;18.10;99.90;;;;;;5079710;28;20040;-90
2021/05/30 07:43:26;;;;;;;3.75;3.42;;;17.90;99.90;;;;;;5067392;28;20033;-90
2021/05/30 07:45:52;;;;;;;3.42;3.13;;;17.80;99.90;;;;;;5090925;28;20039;-90
2021/05/30 07:48:18;;;;;;;3.60;3.28;;;17.80;99.90;;;;;;5079695;28;20099;-90
2021/05/30 07:50:45;;;;;;;4.07;3.08;;;17.90;99.90;;;;;;5089779;28;20540;-90
2021/05/30 07:53:11;;;;;;;3.78;3.17;;;18.20;99.90;;;;;;5083281;28;20445;-89
2021/05/30 07:55:38;;;;;;;4.32;3.17;;;18.50;99.90;;;;;;5087405;28;20416;-90
2021/05/30 07:58:03;;;;;;;5.10;3.55;;;18.70;99.90;;;;;;5084715;28;20107;-90
2021/05/30 08:00:29;;;;;;;3.20;2.80;;;18.80;99.90;;;;;;5085022;28;20455;-90
2021/05/30 08:02:54;;;;;;;4.60;3.38;;;18.50;99.90;;;;;;5090301;28;20027;-90
2021/05/30 08:05:21;;;;;;;4.18;3.20;;;18.40;99.90;;;;;;5065791;28;20059;-89
2021/05/30 08:07:48;;;;;;;4.28;3.30;;;18.70;99.90;;;;;;5091731;28;20020;-89
2021/05/30 08:10:14;;;;;;;3.40;3.10;;;19.00;99.90;;;;;;5090034;28;20028;-89
2021/05/30 08:12:40;;;;;;;4.45;2.88;;;18.90;99.90;;;;;;5074588;28;20073;-90
2021/05/30 08:15:08;;;;;;;3.50;3.20;;;18.90;99.90;;;;;;5070510;28;20055;-89
2021/05/30 08:17:34;;;;;;;4.68;3.75;;;18.90;99.90;;;;;;5088152;28;20513;-89
2021/05/30 08:20:00;;;;;;;3.40;3.10;;;18.80;99.90;;;;;;5089932;28;20507;-90
2021/05/30 08:22:26;;;;;;;3.65;3.00;;;19.00;99.90;;;;;;5090446;28;20028;-90
2021/05/30 08:24:51;;;;;;;3.38;3.08;;;19.30;99.90;;;;;;5091284;28;20035;-90
2021/05/30 08:27:18;;;;;;;3.72;3.42;;;19.40;99.90;;;;;;5072741;28;20542;-90
2021/05/30 08:29:44;;;;;;;4.68;2.88;;;19.10;99.90;;;;;;5071428;28;20023;-89
2021/05/30 08:32:09;;;;;;;3.08;2.78;;;19.10;99.90;;;;;;5071224;28;20052;-89
2021/05/30 08:34:37;;;;;;;3.72;2.72;;;19.10;99.90;;;;;;5089336;28;20031;-90
2021/05/30 08:37:04;;;;;;;3.17;2.92;;;19.40;99.90;;;;;;5089768;28;20069;-89
2021/05/30 08:39:30;;;;;;;3.90;3.28;;;19.60;99.90;;;;;;5089193;28;20028;-89
2021/05/30 08:41:56;;;;;;;4.88;2.95;;;19.40;99.90;;;;;;5070128;28;20066;-90
2021/05/30 08:44:22;;;;;;;3.47;3.05;;;19.80;99.90;;;;;;5071299;28;20028;-89
2021/05/30 08:46:48;;;;;;;3.83;3.00;;;19.90;99.90;;;;;;5089466;28;20024;-89
2021/05/30 08:49:13;;;;;;;3.15;2.85;;;19.80;99.90;;;;;;5089400;28;20077;-89
2021/05/30 08:51:40;;;;;;;4.07;2.95;;;20.10;99.90;;;;;;5093525;28;20020;-89
2021/05/30 08:54:11;;;;;;;3.40;3.10;;;20.30;99.90;;;;;;5076342;28;20480;-89
2021/05/30 08:56:39;;;;;;;3.78;2.67;;;20.20;99.90;;;;;;5074656;28;20305;-89
2021/05/30 08:59:15;;;;;;;3.40;3.10;;;20.10;99.90;;;;;;5093346;28;20028;-89
2021/05/30 09:01:45;;;;;;;4.68;3.28;;;20.00;99.90;;;;;;5092865;28;20040;-89
2021/05/30 09:04:11;;;;;;;4.20;2.90;;;20.00;99.90;;;;;;5075553;28;20032;-89
2021/05/30 09:06:39;;;;;;;4.05;2.95;;;19.90;99.90;;;;;;5094748;28;20032;-90
2021/05/30 09:09:08;;;;;;;4.05;3.15;;;19.70;99.90;;;;;;5093347;28;20161;-89
2021/05/30 09:11:37;;;;;;;3.38;2.83;;;19.50;99.90;;;;;;5093189;28;20083;-89
2021/05/30 09:14:04;;;;;;;9.13;3.50;;;19.70;99.90;;;;;;5073386;28;20027;-89
2021/05/30 09:16:50;;;;;;;5.18;2.70;;;19.60;99.90;;;;;;5091691;28;20109;-90
2021/05/30 09:19:42;;;;;;;4.25;2.90;;;19.70;99.90;;;;;;5091684;28;20032;-90
2021/05/30 09:22:33;;;;;;;3.42;2.90;;;19.70;99.90;;;;;;5091925;28;20070;-89
2021/05/30 09:25:00;;;;;;;3.00;2.70;;;19.90;99.90;;;;;;5090184;28;20023;-89
2021/05/30 09:27:29;;;;;;;4.57;2.90;;;19.90;99.90;;;;;;5076303;28;20067;-89
2021/05/30 09:30:16;;;;;;;4.28;2.83;;;19.90;99.90;;;;;;5092830;28;20032;-90
2021/05/30 09:33:06;;;;;;;3.25;2.95;;;20.00;99.90;;;;;;5092950;28;20168;-90
2021/05/30 09:35:44;;;;;;;4.60;2.85;;;20.00;99.90;;;;;;5092146;28;20093;-90
2021/05/30 09:38:19;;;;;;;2.88;2.60;;;19.70;99.90;;;;;;5074702;28;20051;-89
2021/05/30 09:40:52;;;;;;;3.67;2.50;;;19.60;99.90;;;;;;5091647;28;20170;-90
2021/05/30 09:43:28;;;;;;;4.25;2.42;;;19.40;99.90;;;;;;5075986;28;20048;-89
2021/05/30 09:46:08;;;;;;;3.25;2.60;;;19.50;99.90;;;;;;5073158;28;20028;-90
2021/05/30 09:48:55;;;;;;;3.08;2.60;;;19.60;99.90;;;;;;5092824;28;20380;-89
2021/05/30 09:51:40;;;;;;;3.28;2.65;;;19.90;99.90;;;;;;5092263;28;20036;-89
2021/05/30 09:54:14;;;;;;;2.78;2.58;;;19.80;99.90;;;;;;5091870;28;20511;-89
2021/05/30 09:56:54;;;;;;;2.80;2.58;;;19.90;99.90;;;;;;5090198;28;20492;-89
2021/05/30 09:59:26;;;;;;;3.15;2.70;;;19.70;99.90;;;;;;5089641;28;20028;-89
2021/05/30 10:01:53;;;;;;;3.17;2.60;;;20.00;99.90;;;;;;5090783;28;20024;-90
2021/05/30 10:04:20;;;;;;;3.85;2.80;;;20.00;99.90;;;;;;5073559;28;20028;-89
2021/05/30 10:06:46;;;;;;;4.07;3.60;;;20.00;99.90;;;;;;5089556;28;20129;-89
2021/05/30 10:09:12;;;;;;;2.40;2.20;;;20.20;99.90;;;;;;5073163;28;20055;-89
2021/05/30 10:11:39;;;;;;;2.53;2.33;;;20.10;99.90;;;;;;5073898;28;20085;-89
2021/05/30 10:14:05;;;;;;;3.30;2.67;;;20.40;99.90;;;;;;5073068;28;20035;-89
2021/05/30 10:16:33;;;;;;;2.78;2.58;;;20.60;99.90;;;;;;5073754;28;20030;-89
2021/05/30 10:19:07;;;;;;;2.75;2.38;;;20.70;99.90;;;;;;5074562;28;20020;-89
2021/05/30 10:21:34;;;;;;;2.67;2.47;;;20.70;99.90;;;;;;5091923;28;20044;-89
2021/05/30 10:24:00;;;;;;;3.25;2.40;;;20.40;99.90;;;;;;5091294;28;20032;-89
2021/05/30 10:26:26;;;;;;;3.50;2.22;;;20.50;99.90;;;;;;5091303;28;20036;-89
2021/05/30 10:29:09;;;;;;;3.00;2.70;;;20.50;99.90;;;;;;5090973;28;20027;-89
2021/05/30 10:31:36;;;;;;;4.32;2.35;;;20.80;99.90;;;;;;5075085;28;20555;-89
2021/05/30 10:34:12;;;;;;;3.58;2.53;;;20.90;99.90;;;;;;5092729;28;20031;-89
2021/05/30 10:37:02;;;;;;;3.25;2.40;;;21.20;99.90;;;;;;5092936;28;20039;-89
2021/05/30 10:39:31;;;;;;;2.95;2.60;;;21.00;99.90;;;;;;5091501;28;20492;-89
2021/05/30 10:42:08;;;;;;;6.28;4.25;;;20.60;99.90;;;;;;5088731;28;20058;-89
2021/05/30 10:44:55;;;;;;;3.60;2.38;;;20.90;99.90;;;;;;5091025;28;20392;-89
2021/05/30 10:47:42;;;;;;;2.75;2.45;;;20.80;99.90;;;;;;5090900;28;20070;-89
2021/05/30 10:50:10;;;;;;;4.32;2.40;;;20.70;99.90;;;;;;5091498;28;20488;-89
2021/05/30 10:52:39;;;;;;;2.42;2.22;;;20.80;99.90;;;;;;5090871;28;20107;-89
2021/05/30 10:55:16;;;;;;;2.80;2.50;;;20.80;99.90;;;;;;5090974;28;20024;-89
2021/05/30 10:57:47;;;;;;;5.25;3.00;;;20.80;99.90;;;;;;5074316;28;20081;-89
2021/05/30 11:00:19;;;;;;;3.38;3.05;;;21.00;99.90;;;;;;5089372;28;20429;-89
2021/05/30 11:05:47;;;;;;;4.35;2.80;;;21.60;99.90;;;;;;5091051;28;20020;-89
2021/05/30 11:08:31;;;;;;;2.45;2.22;;;21.80;99.90;;;;;;5090935;28;20028;-89
2021/05/30 11:11:19;;;;;;;3.17;2.60;;;21.80;99.90;;;;;;5090296;28;20035;-89
2021/05/30 11:13:59;;;;;;;4.80;2.50;;;21.80;99.90;;;;;;5090604;28;20044;-89
2021/05/30 11:16:26;;;;;;;3.28;2.58;;;21.80;99.90;;;;;;5076733;28;20028;-90
2021/05/30 11:19:14;;;;;;;6.95;3.35;;;21.40;99.90;;;;;;5073504;28;20024;-90
2021/05/30 11:21:51;;;;;;;4.15;2.90;;;21.60;99.90;;;;;;5091403;28;20024;-89
2021/05/30 11:24:19;;;;;;;3.67;2.72;;;21.50;99.90;;;;;;5088539;28;20032;-89
2021/05/30 11:27:01;;;;;;;3.17;2.35;;;21.30;99.90;;;;;;5090528;28;20024;-89
2021/05/30 11:29:28;;;;;;;2.80;2.53;;;21.30;99.90;;;;;;5089564;28;20016;-88
2021/05/30 11:31:54;;;;;;;3.13;2.33;;;21.70;99.90;;;;;;5090068;28;20036;-89
2021/05/30 11:34:27;;;;;;;3.92;2.67;;;22.20;99.90;;;;;;5090285;28;20496;-89
2021/05/30 11:37:10;;;;;;;2.45;2.13;;;22.50;99.90;;;;;;5091622;28;20039;-89
2021/05/30 11:39:39;;;;;;;3.20;2.35;;;22.40;99.90;;;;;;5072343;28;20046;-88
2021/05/30 11:42:05;;;;;;;5.15;2.38;;;22.30;99.90;;;;;;5087737;28;20035;-89
2021/05/30 11:44:32;;;;;;;3.38;2.25;;;22.30;99.90;;;;;;5090515;28;20042;-89
2021/05/30 11:47:08;;;;;;;3.58;2.20;;;22.00;99.90;;;;;;5090262;28;20392;-89
2021/05/30 11:49:38;;;;;;;2.10;1.90;;;22.00;99.90;;;;;;5072006;28;20395;-89
2021/05/30 11:52:11;;;;;;;2.83;2.30;;;22.10;99.90;;;;;;5089984;28;20499;-89
2021/05/30 11:54:44;;;;;;;3.38;2.55;;;22.40;99.90;;;;;;5091703;28;20407;-89
2021/05/30 11:57:14;;;;;;;2.20;2.00;;;22.70;99.90;;;;;;5088113;28;20030;-88
2021/05/30 11:59:58;;;;;;;2.88;2.17;;;23.10;99.90;;;;;;5069464;28;20039;-89
2021/05/30 12:02:37;;;;;;;2.20;2.00;;;23.30;99.90;;;;;;5090175;28;20028;-89
2021/05/30 12:05:04;;;;;;;4.93;2.22;;;23.70;99.90;;;;;;5090196;28;20028;-89
2021/05/30 12:07:30;;;;;;;2.30;2.10;;;24.90;99.90;;;;;;5089875;28;20024;-89
2021/05/30 12:10:00;;;;;;;3.63;2.10;;;26.40;99.90;;;;;;5090452;28;20028;-88
2021/05/30 12:12:36;;;;;;;2.05;1.92;;;27.60;99.90;;;;;;5091773;28;20042;-88
2021/05/30 12:15:11;;;;;;;2.53;2.03;;;28.30;99.90;;;;;;5071760;28;20024;-88
2021/05/30 12:17:41;;;;;;;4.57;2.13;;;29.30;99.90;;;;;;5089536;28;20012;-89
2021/05/30 12:20:07;;;;;;;3.83;2.38;;;29.30;99.90;;;;;;5071475;28;20500;-88
2021/05/30 12:22:33;;;;;;;2.30;2.10;;;29.50;99.90;;;;;;5089546;28;20024;-88
2021/05/30 12:24:59;;;;;;;3.03;2.08;;;29.70;99.90;;;;;;5091039;28;20055;-89
2021/05/30 12:27:26;;;;;;;2.65;1.95;;;30.70;99.90;;;;;;5076086;28;20032;-88
2021/05/30 12:29:53;;;;;;;3.67;2.22;;;30.10;99.90;;;;;;5093036;28;20481;-88
2021/05/30 12:32:23;;;;;;;2.20;2.00;;;30.10;99.90;;;;;;5068569;28;20044;-89
2021/05/30 12:34:49;;;;;;;2.13;1.92;;;30.00;99.90;;;;;;5090722;28;20016;-88
2021/05/30 12:37:16;;;;;;;3.45;2.03;;;29.60;99.90;;;;;;5094434;28;20128;-89
2021/05/30 12:39:42;;;;;;;2.15;2.00;;;29.50;99.90;;;;;;5094637;28;20047;-89
2021/05/30 12:42:10;;;;;;;2.15;1.90;;;29.80;99.90;;;;;;5069144;28;20032;-88
2021/05/30 12:44:48;;;;;;;2.10;1.90;;;30.10;99.90;;;;;;5083231;28;20024;-89
2021/05/30 12:47:19;;;;;;;1.92;1.77;;;29.90;99.90;;;;;;5093262;28;20036;-89
2021/05/30 12:49:54;;;;;;;2.08;1.88;;;29.70;99.90;;;;;;5087285;28;20013;-88
2021/05/30 12:52:20;;;;;;;2.80;2.03;;;29.40;99.90;;;;;;5077126;28;20024;-89
2021/05/30 12:54:59;;;;;;;1.95;1.85;;;29.40;99.90;;;;;;5095166;28;20038;-89
2021/05/30 12:57:40;;;;;;;2.08;1.90;;;29.90;99.90;;;;;;5085794;28;20086;-89